createdAt,value
2023-05-05T00:00:27.320Z,8.32
2023-05-05T00:00:58.845Z,8.95
2023-05-05T00:01:30.379Z,7.25
2023-05-05T00:02:01.882Z,8.13
2023-05-05T00:02:33.397Z,9.35
2023-05-05T00:03:04.989Z,7.15
2023-05-05T00:03:36.586Z,7.88
2023-05-05T00:04:08.140Z,7.97
2023-05-05T00:04:39.615Z,7.78
2023-05-05T00:05:11.210Z,8.52
2023-05-05T00:05:42.623Z,11.05
2023-05-05T00:06:14.622Z,8.85
2023-05-05T00:06:46.285Z,9.07
2023-05-05T00:07:17.894Z,8.38
2023-05-05T00:07:49.754Z,11.20
2023-05-05T00:08:22.449Z,7.93
2023-05-05T00:08:54.282Z,11.52
2023-05-05T00:09:25.714Z,9.00
2023-05-05T00:09:57.200Z,7.35
2023-05-05T00:10:28.563Z,8.15
2023-05-05T00:11:00.082Z,9.32
2023-05-05T00:11:31.480Z,8.95
2023-05-05T00:12:03.020Z,8.35
2023-05-05T00:12:34.483Z,8.90
2023-05-05T00:13:06.648Z,12.23
2023-05-05T00:13:38.616Z,9.40
2023-05-05T00:14:09.989Z,10.23
2023-05-05T00:14:41.549Z,10.03
2023-05-05T00:15:13.063Z,9.38
2023-05-05T00:15:46.943Z,9.38
2023-05-05T00:16:18.506Z,8.40
2023-05-05T00:16:49.863Z,10.15
2023-05-05T00:17:21.745Z,8.77
2023-05-05T00:17:53.419Z,9.10
2023-05-05T00:18:24.950Z,8.63
2023-05-05T00:18:56.454Z,10.23
2023-05-05T00:19:27.846Z,13.32
2023-05-05T00:19:59.700Z,12.50
2023-05-05T00:20:31.531Z,8.73
2023-05-05T00:21:04.445Z,8.95
2023-05-05T00:21:35.906Z,8.88
2023-05-05T00:22:07.375Z,9.43
2023-05-05T00:22:38.771Z,11.57
2023-05-05T00:23:10.586Z,9.98
2023-05-05T00:23:41.935Z,8.85
2023-05-05T00:24:13.347Z,8.73
2023-05-05T00:24:44.790Z,8.60
2023-05-05T00:25:16.240Z,9.17
2023-05-05T00:25:47.738Z,11.55
2023-05-05T00:26:19.204Z,11.93
2023-05-05T00:26:51.030Z,9.18
2023-05-05T00:27:22.422Z,9.32
2023-05-05T00:27:53.779Z,8.80
2023-05-05T00:28:25.254Z,9.65
2023-05-05T00:28:57.122Z,10.15
2023-05-05T00:29:28.488Z,10.02
2023-05-05T00:29:59.847Z,8.75
2023-05-05T00:30:31.663Z,9.13
2023-05-05T00:31:03.041Z,10.25
2023-05-05T00:31:34.602Z,9.15
2023-05-05T00:32:06.335Z,9.63
2023-05-05T00:32:38.002Z,11.98
2023-05-05T00:33:09.444Z,11.95
2023-05-05T00:33:40.857Z,10.82
2023-05-05T00:34:12.306Z,8.77
2023-05-05T00:34:43.961Z,9.75
2023-05-05T00:35:16.344Z,17.02
2023-05-05T00:35:47.694Z,9.37
2023-05-05T00:36:19.327Z,9.02
2023-05-05T00:36:50.697Z,15.60
2023-05-05T00:37:22.223Z,9.48
2023-05-05T00:37:53.740Z,8.82
2023-05-05T00:38:25.066Z,9.32
2023-05-05T00:38:56.540Z,9.13
2023-05-05T00:39:27.905Z,9.40
2023-05-05T00:39:59.440Z,8.65
2023-05-05T00:40:31.496Z,9.35
2023-05-05T00:41:02.962Z,10.07
2023-05-05T00:41:34.358Z,9.90
2023-05-05T00:42:05.819Z,11.70
2023-05-05T00:42:47.999Z,8.15
2023-05-05T00:43:19.542Z,8.77
2023-05-05T00:43:52.417Z,12.15
2023-05-05T00:44:41.390Z,8.82
2023-05-05T00:45:16.751Z,9.00
2023-05-05T00:45:56.350Z,9.10
2023-05-05T00:46:30.318Z,10.68
2023-05-05T00:47:01.703Z,12.03
2023-05-05T00:47:33.372Z,9.30
2023-05-05T00:48:06.545Z,8.90
2023-05-05T00:48:38.124Z,9.45
2023-05-05T00:49:09.973Z,10.98
2023-05-05T00:49:41.460Z,14.13
2023-05-05T00:50:22.654Z,9.95
2023-05-05T00:50:54.238Z,9.10
2023-05-05T00:51:26.295Z,9.20
2023-05-05T00:51:57.790Z,10.02
2023-05-05T00:52:29.562Z,12.10
2023-05-05T00:53:02.964Z,9.55
2023-05-05T00:53:34.785Z,10.57
2023-05-05T00:54:06.151Z,11.23
2023-05-05T00:54:38.217Z,8.57
2023-05-05T00:55:10.273Z,10.63
2023-05-05T00:55:41.796Z,10.00
2023-05-05T00:56:14.320Z,10.10
2023-05-05T00:56:45.821Z,8.80
2023-05-05T00:57:17.776Z,7.97
2023-05-05T00:57:49.976Z,11.00
2023-05-05T00:58:21.489Z,9.00
2023-05-05T00:58:53.348Z,12.93
2023-05-05T00:59:25.161Z,9.68
2023-05-05T00:59:58.703Z,11.75
2023-05-05T01:00:30.932Z,8.40
2023-05-05T01:01:02.342Z,8.82
2023-05-05T01:01:33.980Z,9.00
2023-05-05T01:02:05.673Z,9.02
2023-05-05T01:02:37.191Z,8.70
2023-05-05T01:03:08.761Z,10.33
2023-05-05T01:03:43.928Z,9.90
2023-05-05T01:04:15.620Z,9.38
2023-05-05T01:04:47.023Z,8.55
2023-05-05T01:05:20.114Z,9.75
2023-05-05T01:05:57.062Z,9.05
2023-05-05T01:06:38.234Z,12.75
2023-05-05T01:07:37.130Z,15.60
2023-05-05T01:08:26.687Z,10.43
2023-05-05T01:09:17.090Z,9.13
2023-05-05T01:10:11.022Z,10.03
2023-05-05T01:10:56.436Z,11.40
2023-05-05T01:12:24.650Z,9.30
2023-05-05T01:13:23.354Z,11.77
2023-05-05T01:14:12.141Z,10.55
2023-05-05T01:14:59.326Z,10.93
2023-05-05T01:15:41.265Z,9.48
2023-05-05T01:16:23.308Z,18.35
2023-05-05T01:17:08.138Z,12.95
2023-05-05T01:17:51.644Z,17.02
2023-05-05T01:18:35.193Z,11.97
2023-05-05T01:19:48.779Z,10.57
2023-05-05T01:20:38.557Z,11.07
2023-05-05T01:21:19.100Z,10.50
2023-05-05T01:21:55.895Z,11.40
2023-05-05T01:22:36.530Z,11.40
2023-05-05T01:23:13.500Z,12.63
2023-05-05T01:23:58.955Z,11.85
2023-05-05T01:25:11.666Z,14.68
2023-05-05T01:26:08.441Z,12.50
2023-05-05T01:27:19.708Z,13.33
2023-05-05T01:28:18.454Z,11.98
2023-05-05T01:29:07.793Z,12.60
2023-05-05T01:30:16.676Z,12.27
2023-05-05T01:31:21.618Z,13.27
2023-05-05T01:32:02.806Z,17.85
2023-05-05T01:32:40.936Z,12.38
2023-05-05T01:33:16.262Z,12.20
2023-05-05T01:33:58.244Z,12.35
2023-05-05T01:34:36.950Z,14.43
2023-05-05T01:35:26.684Z,12.00
2023-05-05T01:36:07.350Z,13.15
2023-05-05T01:36:44.368Z,14.35
2023-05-05T01:37:22.684Z,15.60
2023-05-05T01:38:05.619Z,14.63
2023-05-05T01:38:41.110Z,13.43
2023-05-05T01:39:16.063Z,12.07
2023-05-05T01:39:51.914Z,13.18
2023-05-05T01:40:27.931Z,12.05
2023-05-05T01:41:12.992Z,12.32
2023-05-05T01:41:48.089Z,12.87
2023-05-05T01:42:22.256Z,14.38
2023-05-05T01:42:55.040Z,12.02
2023-05-05T01:43:30.711Z,11.57
2023-05-05T01:44:06.007Z,14.65
2023-05-05T01:44:38.108Z,11.15
2023-05-05T01:45:13.310Z,13.20
2023-05-05T01:45:46.692Z,12.30
2023-05-05T01:46:21.586Z,12.55
2023-05-05T01:46:54.603Z,10.65
2023-05-05T01:47:27.651Z,16.30
2023-05-05T01:48:00.547Z,12.20
2023-05-05T01:48:33.387Z,12.02
2023-05-05T01:49:06.513Z,10.60
2023-05-05T01:49:38.562Z,12.07
2023-05-05T01:50:11.919Z,12.15
2023-05-05T01:50:46.571Z,11.88
2023-05-05T01:51:22.134Z,11.45
2023-05-05T01:51:56.082Z,10.10
2023-05-05T01:52:29.453Z,10.38
2023-05-05T01:53:03.219Z,12.80
2023-05-05T01:53:36.263Z,10.90
2023-05-05T01:54:09.122Z,10.95
2023-05-05T01:54:42.230Z,12.02
2023-05-05T01:55:16.426Z,10.82
2023-05-05T01:55:50.168Z,12.57
2023-05-05T01:56:25.132Z,11.38
2023-05-05T01:56:58.668Z,10.52
2023-05-05T01:57:33.178Z,16.08
2023-05-05T01:58:07.322Z,11.07
2023-05-05T01:58:41.718Z,11.03
2023-05-05T01:59:13.708Z,10.30
2023-05-05T01:59:45.213Z,10.05
2023-05-05T02:00:19.426Z,13.15
2023-05-05T02:00:51.799Z,12.70
2023-05-05T02:01:26.433Z,12.82
2023-05-05T02:02:00.771Z,10.65
2023-05-05T02:02:33.944Z,12.80
2023-05-05T02:03:08.445Z,10.48
2023-05-05T02:03:41.503Z,12.13
2023-05-05T02:04:14.866Z,14.70
2023-05-05T02:04:48.871Z,10.40
2023-05-05T02:05:22.773Z,9.70
2023-05-05T02:05:55.225Z,9.73
2023-05-05T02:06:29.356Z,12.48
2023-05-05T02:07:03.298Z,10.40
2023-05-05T02:07:35.751Z,9.98
2023-05-05T02:08:09.435Z,11.77
2023-05-05T02:08:41.796Z,10.07
2023-05-05T02:09:15.114Z,10.38
2023-05-05T02:09:48.071Z,10.30
2023-05-05T02:10:19.427Z,10.80
2023-05-05T02:10:52.139Z,11.18
2023-05-05T02:11:23.846Z,10.15
2023-05-05T02:11:58.171Z,9.90
2023-05-05T02:12:31.594Z,10.50
2023-05-05T02:13:04.514Z,11.38
2023-05-05T02:13:37.738Z,10.43
2023-05-05T02:14:11.159Z,10.05
2023-05-05T02:14:44.024Z,10.63
2023-05-05T02:15:16.570Z,8.50
2023-05-05T02:15:50.062Z,9.82
2023-05-05T02:16:23.681Z,12.00
2023-05-05T02:16:57.096Z,10.25
2023-05-05T02:17:29.901Z,9.00
2023-05-05T02:18:02.781Z,8.93
2023-05-05T02:18:36.106Z,10.68
2023-05-05T02:19:08.686Z,10.50
2023-05-05T02:19:43.067Z,9.60
2023-05-05T02:20:16.071Z,8.82
2023-05-05T02:20:47.768Z,9.17
2023-05-05T02:21:20.021Z,8.98
2023-05-05T02:21:51.477Z,9.50
2023-05-05T02:22:22.995Z,8.82
2023-05-05T02:22:54.508Z,9.57
2023-05-05T02:23:26.382Z,9.18
2023-05-05T02:23:58.429Z,9.32
2023-05-05T02:24:30.908Z,9.57
2023-05-05T02:25:03.215Z,8.95
2023-05-05T02:25:41.906Z,8.38
2023-05-05T02:26:16.732Z,9.27
2023-05-05T02:26:50.512Z,8.38
2023-05-05T02:27:24.318Z,9.30
2023-05-05T02:27:59.577Z,8.23
2023-05-05T02:28:42.703Z,8.48
2023-05-05T02:29:20.208Z,7.63
2023-05-05T02:30:01.386Z,8.77
2023-05-05T02:30:36.295Z,8.70
2023-05-05T02:31:09.584Z,7.85
2023-05-05T02:31:50.655Z,7.70
2023-05-05T02:32:33.600Z,9.03
2023-05-05T02:33:11.617Z,8.63
2023-05-05T02:33:45.700Z,7.82
2023-05-05T02:34:22.330Z,8.55
2023-05-05T02:34:54.736Z,6.68
2023-05-05T02:35:35.320Z,10.15
2023-05-05T02:36:15.965Z,7.35
2023-05-05T02:36:51.741Z,7.38
2023-05-05T02:37:25.521Z,6.80
2023-05-05T02:38:02.468Z,7.43
2023-05-05T02:38:37.169Z,8.27
2023-05-05T02:39:14.407Z,6.95
2023-05-05T02:39:58.315Z,8.27
2023-05-05T02:40:33.002Z,7.25
2023-05-05T02:41:06.233Z,8.45
2023-05-05T02:41:39.841Z,6.57
2023-05-05T02:42:15.428Z,6.75
2023-05-05T02:42:49.674Z,7.75
2023-05-05T02:43:23.133Z,7.20
2023-05-05T02:43:57.820Z,6.95
2023-05-05T02:44:31.778Z,6.93
2023-05-05T02:45:10.040Z,7.53
2023-05-05T02:45:41.754Z,7.18
2023-05-05T02:46:13.184Z,7.43
2023-05-05T02:46:45.319Z,7.03
2023-05-05T02:47:16.843Z,6.75
2023-05-05T02:47:48.524Z,7.30
2023-05-05T02:48:20.344Z,7.18
2023-05-05T02:48:51.785Z,8.05
2023-05-05T02:49:23.229Z,7.18
2023-05-05T02:49:54.639Z,6.87
2023-05-05T02:50:26.012Z,7.18
2023-05-05T02:50:57.517Z,6.90
2023-05-05T02:51:28.939Z,8.43
2023-05-05T02:52:01.071Z,6.72
2023-05-05T02:52:33.356Z,6.88
2023-05-05T02:53:05.019Z,9.05
2023-05-05T02:53:36.756Z,7.88
2023-05-05T02:54:08.415Z,6.65
2023-05-05T02:54:40.321Z,7.13
2023-05-05T02:55:12.542Z,7.97
2023-05-05T02:55:51.769Z,7.07
2023-05-05T02:56:44.390Z,6.78
2023-05-05T02:57:19.813Z,6.65
2023-05-05T02:58:00.588Z,6.95
2023-05-05T02:58:46.107Z,6.93
2023-05-05T02:59:36.494Z,6.53
2023-05-05T03:00:18.239Z,7.72
2023-05-05T03:00:58.534Z,8.38
2023-05-05T03:02:11.472Z,6.45
2023-05-05T03:03:01.705Z,6.17
2023-05-05T03:03:44.601Z,7.78
2023-05-05T03:04:25.538Z,7.00
2023-05-05T03:05:06.562Z,6.97
2023-05-05T03:05:45.788Z,7.15
2023-05-05T03:06:19.755Z,7.10
2023-05-05T03:06:55.482Z,5.88
2023-05-05T03:07:37.519Z,6.57
2023-05-05T03:08:27.483Z,6.18
2023-05-05T03:09:08.400Z,6.63
2023-05-05T03:10:02.947Z,6.90
2023-05-05T03:11:04.544Z,6.70
2023-05-05T03:11:40.517Z,7.07
2023-05-05T03:12:18.024Z,5.93
2023-05-05T03:12:54.196Z,7.00
2023-05-05T03:13:28.185Z,7.15
2023-05-05T03:14:16.934Z,7.65
2023-05-05T03:14:54.067Z,8.43
2023-05-05T03:15:30.568Z,6.28
2023-05-05T03:16:06.791Z,5.82
2023-05-05T03:16:40.751Z,8.40
2023-05-05T03:17:13.400Z,6.55
2023-05-05T03:17:46.506Z,5.57
2023-05-05T03:18:19.919Z,7.18
2023-05-05T03:18:52.508Z,7.43
2023-05-05T03:19:24.860Z,6.13
2023-05-05T03:19:57.079Z,6.25
2023-05-05T03:20:29.640Z,6.20
2023-05-05T03:21:08.389Z,7.80
2023-05-05T03:21:40.484Z,5.63
2023-05-05T03:22:12.465Z,5.70
2023-05-05T03:22:44.622Z,5.80
2023-05-05T03:23:20.696Z,7.53
2023-05-05T03:23:52.428Z,5.38
2023-05-05T03:24:23.968Z,7.97
2023-05-05T03:24:55.391Z,5.60
2023-05-05T03:25:47.390Z,8.18
2023-05-05T03:26:18.855Z,6.03
2023-05-05T03:26:50.238Z,5.50
2023-05-05T03:27:21.942Z,5.93
2023-05-05T03:27:53.328Z,5.50
2023-05-05T03:28:24.717Z,6.03
2023-05-05T03:28:56.556Z,5.80
2023-05-05T03:29:29.463Z,6.10
2023-05-05T03:30:01.028Z,5.60
2023-05-05T03:30:32.449Z,5.93
2023-05-05T03:31:04.066Z,5.40
2023-05-05T03:31:35.895Z,6.13
2023-05-05T03:32:07.964Z,6.03
2023-05-05T03:32:39.378Z,6.45
2023-05-05T03:33:11.780Z,6.20
2023-05-05T03:33:43.250Z,5.82
2023-05-05T03:34:14.717Z,5.88
2023-05-05T03:34:46.209Z,7.78
2023-05-05T03:35:17.914Z,6.13
2023-05-05T03:35:49.307Z,6.55
2023-05-05T03:36:20.754Z,5.63
2023-05-05T03:36:52.355Z,7.53
2023-05-05T03:37:23.851Z,5.90
2023-05-05T03:37:58.124Z,6.93
2023-05-05T03:38:29.459Z,6.20
2023-05-05T03:39:01.059Z,5.93
2023-05-05T03:39:32.467Z,8.15
2023-05-05T03:40:03.986Z,6.38
2023-05-05T03:40:43.536Z,5.28
2023-05-05T03:41:15.834Z,5.30
2023-05-05T03:41:47.442Z,5.47
2023-05-05T03:42:18.880Z,5.68
2023-05-05T03:42:50.478Z,5.55
2023-05-05T03:43:21.900Z,5.32
2023-05-05T03:43:53.615Z,5.70
2023-05-05T03:44:25.168Z,7.20
2023-05-05T03:44:57.332Z,6.28
2023-05-05T03:45:28.736Z,5.28
2023-05-05T03:46:00.183Z,5.90
2023-05-05T03:46:31.606Z,5.38
2023-05-05T03:47:03.015Z,6.00
2023-05-05T03:47:34.520Z,6.10
2023-05-05T03:48:06.593Z,5.38
2023-05-05T03:48:38.021Z,6.28
2023-05-05T03:49:09.783Z,6.17
2023-05-05T03:49:41.391Z,6.20
2023-05-05T03:50:12.779Z,8.18
2023-05-05T03:50:48.772Z,5.65
2023-05-05T03:51:20.181Z,5.50
2023-05-05T03:51:51.639Z,7.03
2023-05-05T03:52:23.169Z,6.22
2023-05-05T03:52:55.620Z,6.47
2023-05-05T03:53:26.981Z,6.88
2023-05-05T03:53:58.423Z,5.72
2023-05-05T03:54:29.858Z,6.10
2023-05-05T03:55:01.315Z,6.30
2023-05-05T03:55:32.957Z,6.25
2023-05-05T03:56:04.914Z,8.43
2023-05-05T03:56:36.327Z,6.95
2023-05-05T03:57:07.720Z,5.93
2023-05-05T03:57:39.167Z,5.75
2023-05-05T03:58:11.136Z,6.60
2023-05-05T03:58:42.649Z,6.13
2023-05-05T03:59:14.057Z,5.85
2023-05-05T03:59:45.641Z,6.87
2023-05-05T04:00:17.294Z,5.82
2023-05-05T04:00:48.711Z,6.45
2023-05-05T04:01:20.342Z,6.35
2023-05-05T04:01:51.733Z,7.25
2023-05-05T04:02:23.191Z,6.60
2023-05-05T04:02:54.841Z,6.38
2023-05-05T04:03:26.484Z,7.32
2023-05-05T04:03:57.957Z,7.30
2023-05-05T04:04:29.402Z,6.50
2023-05-05T04:05:00.926Z,7.43
2023-05-05T04:05:32.391Z,8.82
2023-05-05T04:06:04.083Z,6.72
2023-05-05T04:06:35.427Z,6.63
2023-05-05T04:07:06.754Z,9.27
2023-05-05T04:07:38.183Z,6.80
2023-05-05T04:08:09.900Z,5.80
2023-05-05T04:08:41.534Z,6.18
2023-05-05T04:09:13.791Z,6.43
2023-05-05T04:09:45.507Z,6.70
2023-05-05T04:10:17.060Z,6.37
2023-05-05T04:10:48.492Z,6.30
2023-05-05T04:11:22.460Z,7.75
2023-05-05T04:11:53.891Z,7.22
2023-05-05T04:12:25.365Z,6.78
2023-05-05T04:12:56.947Z,6.07
2023-05-05T04:13:29.490Z,6.13
2023-05-05T04:14:00.954Z,6.35
2023-05-05T04:14:32.494Z,6.40
2023-05-05T04:15:04.204Z,7.07
2023-05-05T04:15:35.670Z,7.23
2023-05-05T04:16:08.703Z,6.70
2023-05-05T04:16:40.241Z,7.13
2023-05-05T04:17:11.653Z,6.97
2023-05-05T04:17:43.078Z,7.10
2023-05-05T04:18:14.480Z,5.70
2023-05-05T04:18:45.832Z,6.32
2023-05-05T04:19:17.621Z,7.30
2023-05-05T04:19:49.190Z,6.78
2023-05-05T04:20:21.413Z,8.48
2023-05-05T04:20:53.090Z,6.80
2023-05-05T04:21:24.796Z,6.03
2023-05-05T04:21:56.340Z,6.78
2023-05-05T04:22:27.721Z,6.93
2023-05-05T04:22:59.265Z,8.00
2023-05-05T04:23:30.857Z,6.60
2023-05-05T04:24:02.257Z,7.60
2023-05-05T04:24:33.618Z,6.43
2023-05-05T04:25:05.350Z,6.72
2023-05-05T04:25:37.029Z,7.07
2023-05-05T04:26:08.391Z,6.67
2023-05-05T04:26:39.804Z,7.32
2023-05-05T04:27:11.195Z,6.32
2023-05-05T04:27:42.692Z,7.93
2023-05-05T04:28:14.187Z,7.25
2023-05-05T04:28:45.938Z,6.55
2023-05-05T04:29:17.691Z,6.35
2023-05-05T04:29:49.086Z,6.18
2023-05-05T04:30:20.676Z,6.65
2023-05-05T04:30:52.187Z,7.30
2023-05-05T04:31:23.927Z,9.93
2023-05-05T04:31:56.198Z,6.95
2023-05-05T04:32:27.606Z,6.65
2023-05-05T04:32:59.044Z,8.30
2023-05-05T04:33:30.724Z,7.70
2023-05-05T04:34:02.457Z,8.07
2023-05-05T04:34:33.880Z,5.82
2023-05-05T04:35:05.724Z,7.03
2023-05-05T04:35:37.113Z,9.38
2023-05-05T04:36:08.801Z,9.00
2023-05-05T04:36:40.285Z,7.63
2023-05-05T04:37:11.994Z,7.70
2023-05-05T04:37:43.424Z,6.82
2023-05-05T04:38:15.024Z,7.40
2023-05-05T04:38:46.646Z,8.57
2023-05-05T04:39:18.032Z,9.07
2023-05-05T04:39:49.414Z,6.88
2023-05-05T04:40:21.341Z,6.43
2023-05-05T04:40:52.753Z,6.97
2023-05-05T04:41:24.179Z,6.88
2023-05-05T04:41:55.540Z,6.60
2023-05-05T04:42:26.885Z,8.00
2023-05-05T04:42:58.302Z,8.63
2023-05-05T04:43:29.714Z,7.00
2023-05-05T04:44:01.198Z,7.40
2023-05-05T04:44:33.932Z,7.43
2023-05-05T04:45:05.979Z,6.68
2023-05-05T04:45:37.377Z,6.25
2023-05-05T04:46:08.959Z,6.88
2023-05-05T04:46:40.440Z,9.63
2023-05-05T04:47:14.420Z,7.30
2023-05-05T04:47:46.558Z,6.63
2023-05-05T04:48:20.986Z,6.95
2023-05-05T04:48:52.578Z,8.00
2023-05-05T04:49:23.937Z,6.15
2023-05-05T04:49:55.946Z,10.80
2023-05-05T04:50:27.590Z,7.18
2023-05-05T04:51:04.495Z,7.22
2023-05-05T04:51:35.981Z,7.00
2023-05-05T04:52:07.375Z,6.07
2023-05-05T04:52:38.978Z,6.73
2023-05-05T04:53:10.547Z,6.78
2023-05-05T04:53:42.523Z,8.52
2023-05-05T04:54:14.133Z,7.32
2023-05-05T04:54:45.502Z,8.95
2023-05-05T04:55:16.904Z,7.15
2023-05-05T04:55:48.407Z,5.97
2023-05-05T04:56:19.828Z,6.28
2023-05-05T04:56:51.606Z,7.13
2023-05-05T04:57:22.990Z,11.32
2023-05-05T04:57:54.377Z,8.03
2023-05-05T04:58:25.834Z,8.05
2023-05-05T04:58:57.256Z,11.27
2023-05-05T04:59:28.654Z,8.55
2023-05-05T05:00:00.818Z,7.10
2023-05-05T05:00:32.461Z,7.93
2023-05-05T05:01:03.879Z,7.28
2023-05-05T05:01:37.655Z,8.75
2023-05-05T05:02:09.887Z,8.90
2023-05-05T05:02:41.570Z,8.32
2023-05-05T05:03:13.169Z,8.07
2023-05-05T05:03:44.795Z,8.45
2023-05-05T05:04:18.538Z,7.63
2023-05-05T05:04:50.054Z,8.77
2023-05-05T05:05:21.760Z,8.65
2023-05-05T05:05:53.211Z,7.15
2023-05-05T05:06:24.672Z,7.28
2023-05-05T05:06:58.942Z,7.68
2023-05-05T05:07:30.898Z,8.18
2023-05-05T05:08:02.543Z,10.63
2023-05-05T05:08:34.019Z,7.47
2023-05-05T05:09:05.490Z,8.43
2023-05-05T05:09:36.973Z,7.55
2023-05-05T05:10:09.139Z,7.95
2023-05-05T05:10:40.787Z,7.30
2023-05-05T05:11:12.511Z,10.05
2023-05-05T05:11:43.896Z,7.50
2023-05-05T05:12:15.311Z,8.73
2023-05-05T05:12:48.189Z,7.82
2023-05-05T05:13:19.590Z,8.40
2023-05-05T05:13:51.076Z,9.60
2023-05-05T05:14:22.556Z,7.07
2023-05-05T05:14:54.538Z,7.80
2023-05-05T05:15:26.032Z,12.05
2023-05-05T05:15:57.452Z,7.68
2023-05-05T05:16:28.851Z,9.27
2023-05-05T05:17:00.244Z,8.40
2023-05-05T05:17:31.664Z,7.35
2023-05-05T05:18:03.315Z,8.00
2023-05-05T05:18:34.724Z,7.25
2023-05-05T05:19:06.211Z,8.30
2023-05-05T05:19:37.676Z,7.07
2023-05-05T05:20:09.761Z,8.93
2023-05-05T05:20:41.617Z,8.07
2023-05-05T05:21:13.208Z,11.15
2023-05-05T05:21:44.564Z,7.93
2023-05-05T05:22:15.942Z,10.07
2023-05-05T05:22:47.295Z,8.93
2023-05-05T05:23:18.680Z,9.85
2023-05-05T05:23:50.024Z,9.85
2023-05-05T05:24:21.418Z,12.70
2023-05-05T05:24:53.035Z,11.40
2023-05-05T05:25:24.778Z,8.43
2023-05-05T05:25:57.114Z,8.60
2023-05-05T05:26:28.622Z,8.50
2023-05-05T05:26:59.986Z,8.27
2023-05-05T05:27:31.651Z,8.00
2023-05-05T05:28:10.072Z,8.88
2023-05-05T05:28:42.729Z,8.32
2023-05-05T05:29:14.168Z,7.88
2023-05-05T05:29:45.630Z,9.47
2023-05-05T05:30:17.064Z,9.82
2023-05-05T05:30:48.636Z,9.70
2023-05-05T05:31:20.398Z,8.25
2023-05-05T05:31:51.847Z,8.98
2023-05-05T05:32:23.605Z,8.52
2023-05-05T05:32:55.028Z,11.68
2023-05-05T05:33:26.377Z,10.40
2023-05-05T05:33:57.748Z,9.60
2023-05-05T05:34:29.183Z,9.73
2023-05-05T05:35:00.713Z,9.93
2023-05-05T05:35:32.269Z,8.68
2023-05-05T05:36:04.025Z,7.18
2023-05-05T05:36:35.435Z,8.65
2023-05-05T05:37:06.973Z,10.15
2023-05-05T05:37:38.605Z,10.93
2023-05-05T05:38:10.032Z,10.27
2023-05-05T05:38:41.513Z,11.20
2023-05-05T05:39:13.452Z,7.93
2023-05-05T05:39:51.301Z,9.80
2023-05-05T05:40:22.715Z,9.37
2023-05-05T05:40:54.527Z,9.43
2023-05-05T05:41:26.061Z,8.82
2023-05-05T05:41:57.513Z,13.35
2023-05-05T05:42:28.895Z,11.15
2023-05-05T05:43:00.266Z,11.43
2023-05-05T05:43:31.634Z,10.18
2023-05-05T05:44:03.518Z,9.65
2023-05-05T05:44:34.904Z,9.80
2023-05-05T05:45:07.661Z,10.38
2023-05-05T05:45:39.061Z,8.70
2023-05-05T05:46:10.545Z,11.40
2023-05-05T05:46:42.008Z,13.48
2023-05-05T05:47:13.459Z,11.38
2023-05-05T05:47:44.896Z,10.55
2023-05-05T05:48:16.461Z,8.82
2023-05-05T05:48:48.000Z,11.35
2023-05-05T05:49:19.384Z,10.05
2023-05-05T05:49:51.194Z,10.35
2023-05-05T05:50:22.663Z,9.35
2023-05-05T05:50:54.623Z,8.00
2023-05-05T05:51:26.471Z,12.55
2023-05-05T05:51:57.864Z,11.20
2023-05-05T05:52:29.283Z,11.50
2023-05-05T05:53:00.653Z,10.98
2023-05-05T05:53:32.128Z,10.13
2023-05-05T05:54:03.743Z,11.93
2023-05-05T05:54:35.644Z,12.70
2023-05-05T05:55:07.924Z,10.68
2023-05-05T05:55:39.323Z,13.98
2023-05-05T05:56:10.662Z,13.53
2023-05-05T05:56:42.091Z,11.80
2023-05-05T05:57:13.527Z,10.38
2023-05-05T05:57:44.936Z,10.40
2023-05-05T05:58:17.151Z,11.95
2023-05-05T05:58:48.708Z,11.35
2023-05-05T05:59:20.263Z,11.57
2023-05-05T05:59:51.758Z,10.57
2023-05-05T06:00:23.460Z,14.98
2023-05-05T06:00:54.876Z,10.30
2023-05-05T06:01:26.224Z,11.93
2023-05-05T06:01:57.703Z,10.15
2023-05-05T06:02:29.297Z,11.93
2023-05-05T06:03:01.008Z,11.93
2023-05-05T06:03:32.706Z,17.17
2023-05-05T06:04:04.264Z,11.57
2023-05-05T06:04:35.812Z,9.38
2023-05-05T06:05:08.129Z,11.43
2023-05-05T06:05:39.585Z,14.00
2023-05-05T06:06:10.967Z,11.52
2023-05-05T06:06:42.348Z,12.43
2023-05-05T06:07:13.707Z,13.00
2023-05-05T06:07:45.167Z,13.00
2023-05-05T06:08:16.570Z,11.88
2023-05-05T06:08:47.921Z,12.15
2023-05-05T06:09:19.658Z,10.93
2023-05-05T06:09:51.149Z,14.23
2023-05-05T06:10:27.955Z,13.30
2023-05-05T06:11:00.599Z,12.55
2023-05-05T06:11:33.064Z,12.00
2023-05-05T06:12:04.615Z,16.03
2023-05-05T06:12:36.056Z,13.68
2023-05-05T06:13:07.622Z,15.73
2023-05-05T06:13:39.134Z,12.48
2023-05-05T06:14:10.657Z,13.60
2023-05-05T06:14:42.124Z,15.05
2023-05-05T06:15:13.462Z,13.75
2023-05-05T06:15:44.952Z,15.60
2023-05-05T06:16:16.356Z,14.02
2023-05-05T06:16:47.808Z,14.50
2023-05-05T06:17:19.191Z,11.53
2023-05-05T06:17:51.115Z,15.38
2023-05-05T06:18:22.826Z,10.68
2023-05-05T06:18:54.256Z,12.63
2023-05-05T06:19:25.797Z,11.73
2023-05-05T06:19:57.247Z,14.10
2023-05-05T06:20:28.708Z,9.55
2023-05-05T06:21:00.302Z,10.88
2023-05-05T06:21:31.727Z,10.25
2023-05-05T06:22:03.288Z,14.68
2023-05-05T06:22:34.679Z,11.33
2023-05-05T06:23:06.479Z,11.05
2023-05-05T06:23:37.940Z,13.30
2023-05-05T06:24:09.453Z,10.85
2023-05-05T06:24:40.829Z,9.48
2023-05-05T06:25:12.241Z,11.48
2023-05-05T06:25:43.654Z,10.63
2023-05-05T06:26:15.142Z,13.05
2023-05-05T06:26:46.597Z,10.85
2023-05-05T06:27:18.047Z,13.07
2023-05-05T06:27:49.495Z,9.53
2023-05-05T06:28:21.289Z,12.25
2023-05-05T06:28:52.696Z,10.98
2023-05-05T06:29:24.159Z,10.35
2023-05-05T06:29:55.620Z,9.80
2023-05-05T06:30:27.334Z,10.45
2023-05-05T06:30:58.826Z,11.68
2023-05-05T06:31:30.527Z,9.82
2023-05-05T06:32:02.019Z,10.23
2023-05-05T06:32:33.439Z,9.73
2023-05-05T06:33:04.927Z,9.20
2023-05-05T06:33:36.421Z,8.05
2023-05-05T06:34:07.869Z,8.18
2023-05-05T06:34:39.413Z,10.00
2023-05-05T06:35:10.973Z,9.57
2023-05-05T06:35:42.311Z,11.27
2023-05-05T06:36:13.716Z,11.32
2023-05-05T06:36:45.352Z,9.02
2023-05-05T06:37:16.715Z,11.00
2023-05-05T06:37:48.115Z,7.13
2023-05-05T06:38:19.885Z,8.90
2023-05-05T06:38:51.333Z,8.52
2023-05-05T06:39:22.791Z,9.32
2023-05-05T06:39:54.235Z,11.18
2023-05-05T06:40:25.666Z,9.60
2023-05-05T06:40:58.560Z,7.95
2023-05-05T06:41:30.042Z,9.95
2023-05-05T06:42:01.975Z,9.20
2023-05-05T06:42:33.477Z,12.27
2023-05-05T06:43:05.326Z,9.55
2023-05-05T06:43:36.702Z,8.27
2023-05-05T06:44:08.055Z,8.50
2023-05-05T06:44:39.868Z,8.55
2023-05-05T06:45:11.518Z,11.60
2023-05-05T06:45:43.935Z,9.93
2023-05-05T06:46:15.567Z,9.45
2023-05-05T06:46:47.152Z,8.02
2023-05-05T06:47:18.718Z,10.50
2023-05-05T06:47:50.186Z,8.82
2023-05-05T06:48:22.143Z,8.77
2023-05-05T06:48:53.526Z,7.73
2023-05-05T06:49:24.913Z,8.38
2023-05-05T06:49:56.737Z,8.50
2023-05-05T06:50:28.411Z,8.57
2023-05-05T06:50:59.833Z,7.22
2023-05-05T06:51:31.680Z,8.15
2023-05-05T06:52:03.072Z,6.60
2023-05-05T06:52:34.651Z,10.15
2023-05-05T06:53:06.138Z,9.63
2023-05-05T06:53:37.733Z,8.52
2023-05-05T06:54:09.133Z,7.77
2023-05-05T06:54:40.852Z,7.07
2023-05-05T06:55:12.283Z,9.57
2023-05-05T06:55:46.210Z,6.28
2023-05-05T06:56:17.968Z,9.40
2023-05-05T06:56:49.445Z,8.20
2023-05-05T06:57:21.121Z,8.85
2023-05-05T06:57:53.075Z,8.20
2023-05-05T06:58:24.507Z,9.93
2023-05-05T06:58:55.860Z,8.90
2023-05-05T06:59:27.304Z,10.67
2023-05-05T06:59:58.721Z,7.80
2023-05-05T07:00:30.118Z,9.77
2023-05-05T07:01:01.617Z,11.95
2023-05-05T07:01:33.207Z,7.55
2023-05-05T07:02:04.830Z,7.85
2023-05-05T07:02:36.484Z,11.02
2023-05-05T07:03:08.168Z,8.48
2023-05-05T07:03:39.751Z,7.13
2023-05-05T07:04:11.227Z,9.55
2023-05-05T07:04:43.968Z,9.87
2023-05-05T07:05:15.686Z,8.27
2023-05-05T07:05:47.543Z,13.60
2023-05-05T07:06:19.026Z,10.40
2023-05-05T07:06:50.444Z,10.85
2023-05-05T07:07:21.849Z,10.45
2023-05-05T07:07:57.061Z,7.50
2023-05-05T07:08:28.417Z,11.73
2023-05-05T07:08:59.892Z,7.35
2023-05-05T07:09:31.337Z,9.35
2023-05-05T07:10:02.732Z,7.43
2023-05-05T07:10:34.198Z,8.85
2023-05-05T07:11:05.937Z,9.85
2023-05-05T07:11:37.953Z,7.60
2023-05-05T07:12:09.398Z,11.32
2023-05-05T07:12:40.834Z,11.27
2023-05-05T07:13:12.506Z,8.63
2023-05-05T07:13:44.127Z,7.13
2023-05-05T07:14:15.718Z,7.88
2023-05-05T07:14:47.419Z,6.22
2023-05-05T07:15:27.315Z,9.73
2023-05-05T07:16:00.454Z,10.55
2023-05-05T07:16:34.609Z,7.53
2023-05-05T07:17:06.108Z,6.43
2023-05-05T07:17:37.592Z,6.43
2023-05-05T07:18:09.173Z,8.95
2023-05-05T07:18:40.787Z,8.02
2023-05-05T07:19:12.180Z,12.73
2023-05-05T07:19:44.120Z,9.70
2023-05-05T07:20:16.138Z,8.77
2023-05-05T07:20:47.808Z,6.70
2023-05-05T07:21:19.214Z,6.65
2023-05-05T07:21:51.888Z,6.50